createdAt,value
2018-12-12T11:08:37.396Z,5.70
2018-12-12T11:11:11.868Z,6.40
2018-12-12T11:13:54.797Z,3.40
2018-12-12T11:16:23.676Z,4.33
2018-12-12T11:18:52.633Z,2.73
2018-12-12T11:21:21.302Z,3.13
2018-12-12T11:23:50.270Z,6.80
2018-12-12T11:26:19.144Z,5.63
2018-12-12T11:28:47.811Z,2.30
2018-12-12T11:31:16.703Z,4.03
2018-12-12T11:33:50.497Z,2.93
2018-12-12T11:36:16.290Z,3.40
2018-12-12T11:38:45.332Z,4.93
2018-12-12T11:41:13.990Z,3.27
2018-12-12T11:43:42.679Z,2.03
2018-12-12T11:46:11.354Z,1.90
2018-12-12T11:48:40.027Z,2.53
2018-12-12T11:51:08.685Z,1.63
2018-12-12T11:53:37.604Z,4.13
2018-12-12T12:07:56.793Z,2.93
2018-12-12T12:10:31.216Z,3.93
2018-12-12T12:13:06.915Z,1.87
2018-12-12T12:15:47.949Z,3.00
2018-12-12T12:18:22.328Z,1.60
2018-12-12T12:21:07.134Z,1.90
2018-12-12T12:23:51.272Z,1.57
2018-12-12T12:26:30.975Z,1.87
2018-12-12T12:29:12.722Z,1.87
2018-12-12T12:31:47.578Z,4.93
2018-12-12T12:34:22.043Z,9.30
2018-12-12T12:36:56.775Z,7.60
2018-12-12T12:39:31.201Z,3.50
2018-12-12T12:42:06.018Z,9.70
2018-12-12T12:44:40.493Z,8.30
2018-12-12T12:47:15.679Z,12.40
2018-12-12T12:49:50.169Z,18.40
2018-12-12T12:52:24.733Z,8.37
2018-12-12T12:54:59.573Z,7.07
2018-12-12T12:57:34.381Z,35.03
2018-12-12T13:00:09.505Z,93.60
2018-12-12T13:02:44.577Z,307.07
2018-12-12T13:05:19.495Z,366.80
2018-12-12T13:07:54.243Z,362.13
2018-12-12T13:10:28.535Z,415.53
2018-12-12T13:13:03.988Z,393.00
2018-12-12T13:15:39.550Z,365.27
2018-12-12T13:18:14.383Z,282.53
2018-12-12T13:20:48.794Z,304.23
2018-12-12T13:23:23.289Z,258.23
2018-12-12T13:25:58.128Z,234.60
2018-12-12T13:28:32.435Z,223.50
2018-12-12T13:31:06.644Z,201.40
2018-12-12T13:33:41.917Z,187.43
2018-12-12T13:36:16.168Z,197.37
2018-12-12T13:38:51.014Z,171.97
2018-12-12T13:41:25.326Z,178.37
2018-12-12T13:43:59.666Z,157.67
2018-12-12T13:46:34.225Z,172.10
2018-12-12T13:49:09.151Z,177.47
2018-12-12T13:51:43.614Z,177.70
2018-12-12T13:54:18.068Z,158.50
2018-12-12T13:56:52.751Z,161.10
2018-12-12T13:59:27.531Z,169.10
2018-12-12T14:02:01.894Z,165.63
2018-12-12T14:04:36.520Z,184.53
2018-12-12T14:07:11.730Z,163.53
2018-12-12T14:09:46.461Z,168.37
2018-12-12T14:12:21.206Z,168.70
2018-12-12T14:14:56.077Z,176.90
2018-12-12T14:17:30.926Z,164.27
2018-12-12T14:20:07.140Z,174.80
2018-12-12T14:22:41.527Z,157.60
2018-12-12T14:25:16.018Z,164.83
2018-12-12T14:27:51.614Z,144.30
2018-12-12T14:30:26.347Z,136.00
2018-12-12T14:33:01.273Z,141.47
2018-12-12T14:35:36.105Z,154.57
2018-12-12T14:38:10.922Z,128.80
2018-12-12T14:40:46.000Z,149.00
2018-12-12T14:43:20.507Z,144.90
2018-12-12T14:45:54.872Z,141.67
2018-12-12T14:48:30.376Z,136.07
2018-12-12T14:51:05.072Z,150.10
2018-12-12T14:53:39.907Z,147.63
2018-12-12T14:56:14.741Z,144.93
2018-12-12T14:58:49.578Z,118.53
2018-12-12T15:01:24.301Z,122.73
2018-12-12T15:03:59.237Z,126.37
2018-12-12T15:06:34.045Z,132.90
2018-12-12T15:09:08.426Z,128.93
2018-12-12T15:11:43.357Z,121.20
2018-12-12T15:14:17.939Z,125.60
2018-12-12T15:16:53.077Z,115.80
2018-12-12T15:19:27.810Z,113.83
2018-12-12T15:22:03.902Z,123.30
2018-12-12T15:24:38.248Z,118.33
2018-12-12T15:27:12.701Z,100.60
2018-12-12T15:29:47.423Z,110.90
2018-12-12T15:32:22.354Z,89.73
2018-12-12T15:34:56.693Z,107.50
2018-12-12T15:37:31.167Z,95.83
2018-12-12T15:40:06.877Z,95.50
2018-12-12T15:42:41.689Z,120.20
2018-12-12T15:45:16.520Z,99.93
2018-12-12T15:47:51.296Z,92.93
2018-12-12T15:50:26.074Z,99.90
2018-12-12T15:53:01.007Z,96.63
2018-12-12T15:55:35.530Z,92.87
2018-12-12T15:58:10.668Z,86.73
2018-12-12T16:00:45.126Z,95.77
2018-12-12T16:03:19.778Z,76.30
2018-12-12T16:05:54.079Z,80.97
2018-12-12T16:08:28.422Z,86.83
2018-12-12T16:11:08.301Z,78.57
2018-12-12T16:13:39.664Z,87.47
2018-12-12T16:16:14.444Z,95.83
2018-12-12T16:18:49.296Z,78.07
2018-12-12T16:21:24.686Z,70.50
2018-12-12T16:23:59.095Z,84.70
2018-12-12T16:26:34.095Z,71.30
2018-12-12T16:29:08.636Z,66.83
2018-12-12T16:31:43.075Z,62.47
2018-12-12T16:34:17.681Z,72.67
2018-12-12T16:36:52.402Z,69.57
2018-12-12T16:39:26.726Z,61.70
2018-12-12T16:42:01.555Z,59.70
2018-12-12T16:44:35.915Z,62.40
2018-12-12T16:47:10.594Z,58.13
2018-12-12T16:49:45.422Z,66.07
2018-12-12T16:52:19.865Z,57.07
2018-12-12T16:54:54.975Z,56.63
2018-12-12T16:57:29.299Z,56.33
2018-12-12T17:00:07.208Z,62.07
2018-12-12T17:02:41.921Z,52.27
2018-12-12T17:05:16.845Z,53.17
2018-12-12T17:07:51.672Z,51.07
2018-12-12T17:10:26.228Z,49.90
2018-12-12T17:13:00.726Z,50.90
2018-12-12T17:15:35.561Z,52.60
2018-12-12T17:18:10.081Z,51.90
2018-12-12T17:20:44.421Z,51.10
2018-12-12T17:23:18.818Z,46.80
2018-12-12T17:25:53.593Z,49.33
2018-12-12T17:28:27.954Z,42.87
2018-12-12T17:31:02.715Z,41.50
2018-12-12T17:33:37.474Z,47.10
2018-12-12T17:36:12.647Z,45.03
2018-12-12T17:38:47.072Z,47.90
2018-12-12T17:41:21.685Z,41.40
2018-12-12T17:43:56.862Z,42.70
2018-12-12T17:46:31.676Z,41.20
2018-12-12T17:49:06.648Z,44.80
2018-12-12T17:51:41.349Z,48.97
2018-12-12T17:54:15.898Z,71.10
2018-12-12T17:56:50.165Z,85.37
2018-12-12T17:59:25.220Z,67.10
2018-12-12T18:01:59.724Z,61.47
2018-12-12T18:04:35.124Z,56.10
2018-12-12T18:07:10.152Z,50.23
2018-12-12T18:09:44.813Z,62.17
2018-12-12T18:12:19.263Z,55.07
2018-12-12T18:14:53.863Z,48.63
2018-12-12T18:17:28.320Z,42.30
2018-12-12T18:20:02.651Z,43.10
2018-12-12T18:22:37.085Z,40.50
2018-12-12T18:25:11.676Z,45.70
2018-12-12T18:27:46.532Z,42.40
2018-12-12T18:30:21.345Z,33.23
2018-12-12T18:32:56.477Z,33.53
2018-12-12T18:35:31.644Z,33.73
2018-12-12T18:38:06.099Z,30.80
2018-12-12T18:40:40.661Z,33.40
2018-12-12T18:43:15.788Z,28.00
2018-12-12T18:45:50.337Z,28.17
2018-12-12T18:48:24.726Z,30.63
2018-12-12T18:50:58.963Z,26.70
2018-12-12T18:53:33.196Z,33.13
2018-12-12T18:56:07.629Z,22.37
2018-12-12T18:58:42.013Z,20.30
2018-12-12T19:01:16.445Z,24.93
2018-12-12T19:03:50.867Z,22.03
2018-12-12T19:06:25.687Z,21.80
2018-12-12T19:09:00.442Z,27.53
2018-12-12T19:11:35.187Z,17.10
2018-12-12T19:14:10.013Z,14.97
2018-12-12T19:16:44.617Z,24.43
2018-12-12T19:19:19.041Z,16.20
2018-12-12T19:21:53.653Z,20.63
2018-12-12T19:24:29.021Z,19.90
2018-12-12T19:27:03.353Z,14.97
2018-12-12T19:29:38.146Z,19.30
2018-12-12T19:32:13.001Z,18.50
2018-12-12T19:34:49.901Z,12.33
2018-12-12T19:37:25.009Z,15.13
2018-12-12T19:39:59.253Z,17.97
2018-12-12T19:42:34.162Z,16.37
2018-12-12T19:45:09.241Z,14.13
2018-12-12T19:47:43.806Z,15.30
2018-12-12T19:50:18.593Z,9.77
2018-12-12T19:52:53.287Z,14.93
2018-12-12T19:55:28.035Z,12.93
2018-12-12T19:58:02.525Z,19.03
2018-12-12T20:00:37.277Z,14.77
2018-12-12T20:03:12.410Z,9.80
2018-12-12T20:05:47.030Z,14.57
2018-12-12T20:08:21.541Z,10.30
2018-12-12T20:10:55.897Z,11.53
2018-12-12T20:13:30.254Z,9.87
2018-12-12T20:16:04.688Z,8.13
2018-12-12T20:18:38.943Z,7.03
2018-12-12T20:21:13.494Z,9.23
2018-12-12T20:23:48.611Z,12.40
2018-12-12T20:26:23.291Z,6.90
2018-12-12T20:28:58.487Z,9.27
2018-12-12T20:31:32.839Z,7.93
2018-12-12T20:34:07.599Z,4.80
2018-12-12T20:36:41.859Z,5.73
2018-12-12T20:39:16.719Z,8.07
2018-12-12T20:41:51.583Z,7.53
2018-12-12T20:44:26.626Z,5.10
2018-12-12T20:47:01.749Z,5.47
2018-12-12T20:49:36.072Z,9.37
2018-12-12T20:52:11.128Z,6.77
2018-12-12T20:54:45.731Z,9.13
2018-12-12T20:57:20.792Z,8.10
2018-12-12T20:59:55.592Z,6.10
2018-12-12T21:02:30.134Z,6.77
2018-12-12T21:05:05.537Z,5.47
2018-12-12T21:07:40.091Z,8.13
2018-12-12T21:10:14.667Z,3.90
2018-12-12T21:12:49.014Z,4.23
2018-12-12T21:15:24.321Z,5.90
2018-12-12T21:17:59.661Z,7.50
2018-12-12T21:20:34.183Z,5.83
2018-12-12T21:23:08.422Z,5.73
2018-12-12T21:25:43.789Z,7.10
2018-12-12T21:28:19.063Z,5.50
2018-12-12T21:30:53.915Z,8.90
2018-12-12T21:33:28.773Z,6.30
2018-12-12T21:36:03.191Z,3.97
2018-12-12T21:38:37.801Z,6.20
2018-12-12T21:41:12.752Z,4.13
2018-12-12T21:43:47.818Z,5.27
2018-12-12T21:46:22.643Z,9.07
2018-12-12T21:48:57.537Z,5.10
2018-12-12T21:51:32.266Z,6.13
2018-12-12T21:54:06.788Z,7.97
2018-12-12T21:56:41.395Z,4.50
2018-12-12T21:59:15.826Z,13.70
2018-12-12T22:01:50.558Z,6.13
2018-12-12T22:04:24.860Z,5.60
2018-12-12T22:06:59.702Z,7.17
2018-12-12T22:09:34.408Z,6.10
2018-12-12T22:12:08.755Z,6.27
2018-12-12T22:14:43.568Z,5.90
2018-12-12T22:17:17.950Z,4.27
2018-12-12T22:19:52.582Z,7.23
2018-12-12T22:22:28.058Z,5.43
2018-12-12T22:25:02.413Z,5.00
2018-12-12T22:27:37.077Z,3.77
2018-12-12T22:30:11.789Z,5.17
2018-12-12T22:32:46.662Z,3.90
2018-12-12T22:35:21.610Z,5.80
2018-12-12T22:37:56.341Z,5.40
2018-12-12T22:40:31.174Z,5.87
2018-12-12T22:43:06.090Z,5.33
2018-12-12T22:45:40.923Z,4.67
2018-12-12T22:48:20.569Z,4.67
2018-12-12T22:50:52.344Z,3.33
2018-12-12T22:53:26.543Z,4.90
2018-12-12T22:56:01.390Z,5.00
2018-12-12T22:58:36.288Z,5.10
2018-12-12T23:01:12.703Z,3.27
2018-12-12T23:03:47.799Z,3.43
2018-12-12T23:06:22.166Z,2.90
2018-12-12T23:08:56.468Z,4.30
2018-12-12T23:11:30.948Z,3.13
2018-12-12T23:14:05.793Z,4.73
2018-12-12T23:16:40.126Z,3.10
2018-12-12T23:19:14.946Z,3.13
2018-12-12T23:21:49.403Z,2.83
2018-12-12T23:24:25.224Z,5.97
2018-12-12T23:27:00.192Z,3.60
2018-12-12T23:29:34.576Z,8.83
2018-12-12T23:32:09.300Z,2.73
2018-12-12T23:34:44.285Z,3.43
2018-12-12T23:37:19.047Z,3.63
2018-12-12T23:39:53.575Z,3.90
2018-12-12T23:42:28.326Z,3.33
2018-12-12T23:45:02.600Z,4.53
2018-12-12T23:47:36.904Z,4.93
2018-12-12T23:50:11.326Z,2.50
2018-12-12T23:52:45.894Z,2.77
2018-12-12T23:55:20.236Z,3.30
2018-12-12T23:57:55.107Z,2.20
